• Join FlightAware (Why Join?)
  • Login
  • US Flag 
01:09PM EDT


 

Airport Tracker/Info


-or-


 

Live Flight TrackerFlight Track Log ✈ CRQ922 ✈ 13-May-2014 ✈ CYKQ - CYVO

Flight Track Log - Related Links

Times and Time Zones

All times are in EDT time to prevent confusion due to time zone crossing. See the CRQ922 flight status page for this flight to view local times or setup timezone preferences in your user account.

Time Position Orientation Groundspeed Altitude Reporting Facility
EDT Latitude Longitude Course Direction KTS MPH feet Rate Location/Type
04:13PM 50.6167 -78.5333 180° South 180 207 17,100  Level Montreal Center
04:14PM 50.5667 -78.5333 180° South 200 230 17,400 360 Climbing Montreal Center
04:15PM 50.5000 -78.5000 162° South 200 230 17,900 540 Climbing Montreal Center
04:16PM 50.4500 -78.5000 180° South 190 219 18,500 540 Climbing Montreal Center
04:17PM 50.4000 -78.4667 157° South 190 219 19,000 480 Climbing Montreal Center
04:18PM 50.3500 -78.4667 180° South 180 207 19,500 420 Climbing Montreal Center
04:19PM 50.3000 -78.4333 157° South 180 207 19,900 240 Climbing Montreal Center
04:20PM 50.2500 -78.4333 180° South 190 219 20,000  Climbing Montreal Center
04:21PM 50.2000 -78.4167 168° South 200 230 20,000  Level Montreal Center
04:22PM 50.1500 -78.4000 168° South 210 242 20,000  Level Montreal Center
04:23PM 50.0833 -78.3833 171° South 210 242 20,000  Level Montreal Center
04:24PM 50.0167 -78.3500 162° South 220 253 20,000  Level Montreal Center
04:25PM 49.9667 -78.3500 180° South 220 253 20,000  Level Montreal Center
04:26PM 49.9000 -78.3167 162° South 220 253 20,000  Level Montreal Center
04:27PM 49.8333 -78.3167 180° South 220 253 20,000  Level Montreal Center
04:28PM 49.7833 -78.2833 157° South 220 253 20,000  Level Montreal Center
04:30PM 49.6667 -78.2500 170° South 220 253 20,000  Level Montreal Center
04:31PM 49.6000 -78.2167 162° South 220 253 20,000  Level Montreal Center
04:32PM 49.5333 -78.2167 180° South 230 265 20,000  Level Montreal Center
04:33PM 49.4667 -78.1833 162° South 240 276 20,000  Level Montreal Center
04:34PM 49.4167 -78.1833 180° South 230 265 20,000  Level Montreal Center
04:36PM 49.3000 -78.1500 169° South 210 242 20,000  Level Montreal Center
04:37PM 49.2333 -78.1333 171° South 240 276 20,000  Level Montreal Center
04:38PM 49.1667 -78.1000 162° South 240 276 20,000  Level Montreal Center
04:39PM 49.1000 -78.1000 180° South 230 265 20,000 -540 Level Montreal Center
04:40PM 49.0500 -78.0667 156° South 190 219 19,000 -1,200 Descending Montreal Center
04:41PM 48.9667 -78.0333 165° South 260 299 17,700 -1,500 Descending Montreal Center
04:42PM 48.8833 -78.0333 180° South 290 334 16,100 -1,500 Descending Montreal Center
04:43PM 48.8167 -78.0000 162° South 280 322 14,700 -960 Descending Montreal Center
04:57PM 45.6333 -73.3000 162° South 360 414 1,700 -960 Descending Montreal Center
04:58PM 48.0533 -77.7828 162° South  Level Estimated
04:59PM 48.0533 -77.7828 162° South  Level Estimated
04:59PM 45.7034 -73.4200 310° West  Level Estimated
05:00PM 48.0533 -77.7828 162° South  Level Estimated
05:01PM 48.0533 -77.7828 162° South  Level Estimated
05:02PM 48.0533 -77.7828 162° South  Level Estimated
05:06PM 46.0600 -74.0394 310° West  Level Estimated
05:07PM 46.1106 -74.1285 309° West  Level Estimated
05:08PM 46.1613 -74.2178 309° West  Level Estimated
05:09PM 46.2118 -74.3073 309° West  Level Estimated
05:10PM 46.2622 -74.3969 309° West  Level Estimated
05:11PM 46.3126 -74.4867 309° West  Level Estimated
05:12PM 46.3630 -74.5767 309° West  Level Estimated
05:13PM 46.4132 -74.6668 309° West  Level Estimated
05:14PM 46.4634 -74.7571 309° West  Level Estimated
05:15PM 46.5135 -74.8475 309° West  Level Estimated
05:16PM 46.5635 -74.9382 309° West  Level Estimated
05:17PM 46.6135 -75.0290 309° West  Level Estimated
05:18PM 46.6634 -75.1199 309° West  Level Estimated
05:19PM 46.7132 -75.2111 309° West  Level Estimated
05:20PM 46.7630 -75.3024 309° West  Level Estimated
05:21PM 46.8127 -75.3938 308° West  Level Estimated
05:22PM 46.8623 -75.4855 308° West  Level Estimated
05:23PM 46.9118 -75.5772 308° West  Level Estimated
05:24PM 46.9613 -75.6692 308° West  Level Estimated
05:25PM 47.0107 -75.7614 308° West  Level Estimated
05:26PM 47.0600 -75.8537 308° West  Level Estimated
05:27PM 47.1092 -75.9462 308° West  Level Estimated
05:28PM 47.1584 -76.0388 308° West  Level Estimated
05:29PM 47.2074 -76.1317 308° West  Level Estimated
05:30PM 47.2565 -76.2246 308° West  Level Estimated
05:31PM 47.3054 -76.3178 308° West  Level Estimated
05:32PM 47.3543 -76.4112 308° West  Level Estimated
05:33PM 47.4030 -76.5047 308° West  Level Estimated
05:34PM 47.4517 -76.5984 308° West  Level Estimated
05:35PM 47.5004 -76.6922 308° West  Level Estimated
05:36PM 47.5489 -76.7863 307° West  Level Estimated
05:37PM 47.5974 -76.8805 307° West  Level Estimated
05:38PM 47.6458 -76.9749 307° West  Level Estimated
05:39PM 47.6941 -77.0694 307° West  Level Estimated
05:40PM 47.7424 -77.1641 307° West  Level Estimated
05:41PM 47.7905 -77.2591 307° West  Level Estimated
05:42PM 47.8386 -77.3541 307° West  Level Estimated
05:43PM 47.8866 -77.4494 307° West  Level Estimated